Time;durP1;ratioP1;P1;durP2;ratioP2;P2;SDS_P1;SDS_P2;PMS_P1;PMS_P2;Temp;Humidity;BMP_temperature;BMP_pressure;BME280_temperature;BME280_humidity;BME280_pressure;Samples;Min_cycle;Max_cycle;Signal;HPM_P1;HPM_P2
2022/09/11 00:05:00;;;;;;;6.22;5.72;;;;;;;16.83;100.00;100040.34;10297258;28;20066;-74
2022/09/11 00:10:01;;;;;;;6.78;6.18;;;;;;;16.73;100.00;100042.38;10287773;28;20458;-75
2022/09/11 00:15:03;;;;;;;7.10;6.57;;;;;;;16.60;99.13;100042.84;10300490;28;20478;-73
2022/09/11 00:20:04;;;;;;;7.40;6.65;;;;;;;16.56;100.00;100039.69;10296318;28;20062;-74
2022/09/11 00:25:06;;;;;;;8.15;7.55;;;;;;;16.63;100.00;100047.88;10294858;28;20524;-76
2022/09/11 00:30:08;;;;;;;7.25;6.60;;;;;;;16.75;100.00;100056.47;10280333;28;20160;-73
2022/09/11 00:35:09;;;;;;;6.88;6.30;;;;;;;16.81;100.00;100060.31;10294100;28;21447;-74
2022/09/11 00:40:10;;;;;;;7.22;6.72;;;;;;;16.86;99.59;100069.56;10294142;28;20579;-74
2022/09/11 00:45:22;;;;;;;7.40;6.70;;;;;;;16.74;98.68;100070.94;10293259;28;20209;-75
2022/09/11 00:50:28;;;;;;;7.22;6.72;;;;;;;16.76;97.09;100085.03;10292949;28;20046;-74
2022/09/11 00:55:34;;;;;;;6.28;5.78;;;;;;;16.77;97.77;100092.91;10293075;28;20050;-74
2022/09/11 01:00:38;;;;;;;7.05;6.55;;;;;;;16.92;98.74;100089.59;10291504;28;20046;-75
2022/09/11 01:05:42;;;;;;;6.90;6.30;;;;;;;16.75;95.02;100099.47;10292269;28;20129;-75
2022/09/11 01:11:20;;;;;;;8.95;6.78;;;;;;;16.78;96.07;100091.06;10291443;28;20061;-73
2022/09/11 01:16:37;;;;;;;6.95;6.25;;;;;;;16.77;95.00;100097.47;10283948;28;20055;-70
2022/09/11 01:22:10;;;;;;;6.93;6.43;;;;;;;16.91;96.75;100107.56;10289788;28;21148;-74
2022/09/11 01:27:30;;;;;;;6.45;5.95;;;;;;;17.01;95.49;100103.84;10291193;28;20057;-74
2022/09/11 01:32:40;;;;;;;7.15;6.57;;;;;;;17.02;96.82;100108.22;10288130;28;20050;-72
2022/09/11 01:37:53;;;;;;;7.80;7.18;;;;;;;17.07;96.53;100109.41;10290736;28;20111;-74
2022/09/11 01:43:05;;;;;;;7.45;6.88;;;;;;;17.07;96.56;100111.25;10290764;28;20053;-75
2022/09/11 01:48:07;;;;;;;6.80;6.25;;;;;;;17.07;95.16;100112.09;10291996;28;20054;-73
2022/09/11 01:53:12;;;;;;;7.80;7.10;;;;;;;17.08;96.17;100111.09;10289833;28;20042;-74
2022/09/11 01:58:21;;;;;;;7.88;7.28;;;;;;;17.07;97.12;100109.41;10295827;28;20374;-73
2022/09/11 02:03:35;;;;;;;7.22;6.55;;;;;;;17.02;96.95;100106.38;10294773;28;20050;-78
2022/09/11 02:08:44;;;;;;;8.30;7.68;;;;;;;17.00;96.67;100118.31;10291464;28;20328;-74
2022/09/11 02:13:48;;;;;;;8.15;7.47;;;;;;;16.93;97.22;100119.00;10294061;28;20475;-76
2022/09/11 02:18:55;;;;;;;;;;;;;;;16.91;97.08;100115.63;10289474;28;20050;-76
2022/09/11 02:24:00;;;;;;;8.23;7.63;;;;;;;16.82;97.57;100121.16;10295158;28;20002;-75
2022/09/11 02:29:01;;;;;;;7.97;7.28;;;;;;;16.81;97.39;100131.03;10293743;28;20414;-75
2022/09/11 02:34:03;;;;;;;8.73;8.02;;;;;;;16.84;96.20;100143.31;10294805;28;20061;-76
2022/09/11 02:39:45;;;;;;;7.70;7.00;;;;;;;16.84;95.47;100146.00;10291361;28;20053;-74
2022/09/11 02:45:25;;;;;;;7.57;6.97;;;;;;;16.84;94.06;100148.69;10291328;28;20160;-73
2022/09/11 02:50:57;;;;;;;8.13;7.43;;;;;;;16.82;94.34;100159.63;10292179;28;20053;-73
2022/09/11 02:56:10;;;;;;;7.82;7.22;;;;;;;16.79;93.76;100162.63;10286922;28;20083;-73
2022/09/11 03:01:12;;;;;;;7.60;7.00;;;;;;;16.75;94.44;100161.28;10284358;28;20160;-73
2022/09/11 03:06:21;;;;;;;8.02;7.43;;;;;;;16.79;94.59;100170.69;10288504;28;20073;-75
2022/09/11 03:11:23;;;;;;;7.72;7.03;;;;;;;16.74;93.88;100167.69;10287393;28;20053;-73
2022/09/11 03:16:24;;;;;;;6.95;6.45;;;;;;;16.75;94.11;100174.72;10288998;28;20349;-74
2022/09/11 03:21:25;;;;;;;6.80;6.25;;;;;;;16.67;92.39;100177.41;10291687;28;20676;-74
2022/09/11 03:26:27;;;;;;;7.10;6.60;;;;;;;16.63;93.73;100181.41;10300432;28;20685;-73
2022/09/11 03:31:29;;;;;;;6.82;6.22;;;;;;;16.67;94.35;100193.53;10297806;28;20054;-74
2022/09/11 03:36:33;;;;;;;7.63;7.03;;;;;;;16.71;94.41;100194.84;10297552;28;20093;-76
2022/09/11 03:41:34;;;;;;;6.63;5.95;;;;;;;16.68;92.70;100195.19;10296448;28;20058;-73
2022/09/11 03:46:35;;;;;;;7.00;6.50;;;;;;;16.66;93.40;100206.09;10298489;28;20053;-74
2022/09/11 03:51:37;;;;;;;7.43;6.82;;;;;;;16.68;94.55;100205.94;10297025;28;20069;-73
2022/09/11 03:56:38;;;;;;;7.10;6.50;;;;;;;16.71;94.71;100214.53;10297211;28;20049;-75
2022/09/11 04:01:39;;;;;;;7.07;6.57;;;;;;;16.61;94.71;100211.97;10298831;28;20042;-75
2022/09/11 04:06:41;;;;;;;7.78;7.18;;;;;;;16.70;94.18;100222.75;10298851;28;20064;-75
2022/09/11 04:11:42;;;;;;;7.82;7.22;;;;;;;16.75;93.87;100233.84;10298310;28;20046;-74
2022/09/11 04:16:43;;;;;;;8.35;7.75;;;;;;;16.79;92.77;100232.53;10302185;28;20604;-74
2022/09/11 04:21:44;;;;;;;8.88;8.07;;;;;;;16.66;92.44;100221.41;10299571;28;20149;-75
2022/09/11 04:26:46;;;;;;;8.50;7.80;;;;;;;16.73;92.26;100225.94;10298720;28;20050;-74
2022/09/11 04:31:47;;;;;;;9.43;8.52;;;;;;;16.72;92.93;100220.75;10276625;28;20058;-75
2022/09/11 04:36:49;;;;;;;9.73;8.82;;;;;;;16.70;91.38;100220.06;10296686;28;20338;-73
2022/09/11 04:41:50;;;;;;;10.38;9.48;;;;;;;16.69;91.80;100223.75;10291350;28;20599;-72
2022/09/11 04:46:51;;;;;;;11.30;10.07;;;;;;;16.72;91.83;100228.81;10297569;28;20387;-75
2022/09/11 04:51:53;;;;;;;11.55;10.48;;;;;;;16.69;92.68;100224.59;10297752;28;24142;-74
2022/09/11 04:56:55;;;;;;;11.02;10.10;;;;;;;16.68;92.54;100227.44;10295238;28;20498;-74
2022/09/11 05:01:56;;;;;;;12.32;11.32;;;;;;;16.67;92.54;100241.91;10295318;28;20724;-76
2022/09/11 05:06:58;;;;;;;12.60;11.40;;;;;;;16.71;92.04;100254.00;10293400;28;20246;-74
2022/09/11 05:12:00;;;;;;;11.68;10.65;;;;;;;16.78;93.00;100263.09;10293507;28;20061;-74
2022/09/11 05:17:02;;;;;;;12.25;11.25;;;;;;;16.82;93.02;100266.31;10293887;28;20050;-70
2022/09/11 05:22:03;;;;;;;12.60;11.50;;;;;;;16.85;92.74;100258.75;10294286;28;20769;-74
2022/09/11 05:27:06;;;;;;;11.63;10.60;;;;;;;16.86;91.44;100268.50;10294006;28;20061;-74
2022/09/11 05:32:07;;;;;;;12.48;11.30;;;;;;;16.82;92.41;100272.50;10290766;28;20046;-73
2022/09/11 05:37:09;;;;;;;11.68;10.68;;;;;;;16.83;92.81;100282.28;10292646;28;20089;-75
2022/09/11 05:42:10;;;;;;;11.95;10.95;;;;;;;16.79;91.60;100278.22;10278895;28;20062;-76
2022/09/11 05:47:13;;;;;;;12.80;11.68;;;;;;;16.89;92.10;100295.09;10268745;28;20256;-72
2022/09/11 05:52:14;;;;;;;12.68;11.57;;;;;;;16.95;92.00;100301.66;10271386;28;20508;-72
2022/09/11 05:57:16;;;;;;;14.10;12.90;;;;;;;16.94;92.00;100308.03;10270265;28;20065;-70
2022/09/11 06:02:17;;;;;;;13.55;12.35;;;;;;;16.91;92.17;100303.00;10262053;28;20054;-70
2022/09/11 06:07:18;;;;;;;13.45;12.05;;;;;;;16.88;92.98;100306.84;10282993;28;20117;-71
2022/09/11 06:12:20;;;;;;;14.73;13.43;;;;;;;16.93;93.01;100312.59;10269617;28;20046;-70
2022/09/11 06:17:22;;;;;;;16.10;14.73;;;;;;;16.94;92.19;100322.31;10270870;28;20050;-72
2022/09/11 06:22:23;;;;;;;15.63;14.18;;;;;;;16.95;93.17;100326.69;10266305;28;20477;-71
2022/09/11 06:27:24;;;;;;;14.65;13.32;;;;;;;16.98;92.47;100330.03;10268920;28;20461;-68
2022/09/11 06:32:26;;;;;;;15.10;13.70;;;;;;;16.98;92.99;100333.59;10268913;28;20430;-69
2022/09/11 06:37:27;;;;;;;16.25;14.75;;;;;;;17.07;93.17;100345.19;10266979;28;20064;-71
2022/09/11 06:42:29;;;;;;;17.27;15.70;;;;;;;17.18;92.61;100352.97;10265603;28;20339;-72
2022/09/11 06:47:31;;;;;;;17.27;15.65;;;;;;;17.37;91.62;100353.69;10281554;28;20532;-67
2022/09/11 06:52:34;;;;;;;19.80;17.80;;;;;;;17.27;88.94;100351.97;10268247;28;20116;-72
2022/09/11 06:57:35;;;;;;;17.92;16.23;;;;;;;17.47;90.29;100362.44;10267244;28;20092;-71
2022/09/11 07:02:42;;;;;;;20.45;18.42;;;;;;;17.58;89.96;100354.06;10268066;28;20061;-69
2022/09/11 07:07:44;;;;;;;19.70;17.67;;;;;;;17.65;89.26;100357.78;10268459;28;20045;-70
2022/09/11 07:12:45;;;;;;;22.45;20.05;;;;;;;17.84;86.82;100358.44;10264960;28;20066;-71
2022/09/11 07:17:50;;;;;;;22.98;20.75;;;;;;;17.83;86.25;100357.59;10268836;28;20054;-72
2022/09/11 07:22:51;;;;;;;24.38;21.92;;;;;;;17.84;85.62;100369.22;10262628;28;20228;-70
2022/09/11 07:27:53;;;;;;;22.20;19.90;;;;;;;18.09;86.18;100371.91;10267209;28;20093;-74
2022/09/11 07:32:55;;;;;;;23.00;20.65;;;;;;;18.45;85.38;100376.91;10265353;28;20055;-70
2022/09/11 07:37:57;;;;;;;23.33;21.00;;;;;;;18.55;83.83;100377.56;10266504;28;20362;-69
2022/09/11 07:42:59;;;;;;;21.73;19.45;;;;;;;18.95;82.67;100389.25;10278683;28;20050;-69
2022/09/11 07:48:01;;;;;;;21.95;19.70;;;;;;;19.16;78.56;100382.44;10262700;28;20496;-73
2022/09/11 07:53:02;;;;;;;21.55;19.42;;;;;;;19.37;79.33;100388.03;10266107;28;20054;-72
2022/09/11 07:58:03;;;;;;;19.20;17.25;;;;;;;19.53;77.32;100392.50;10266882;28;20069;-69
2022/09/11 08:03:04;;;;;;;19.58;17.48;;;;;;;19.38;75.46;100400.53;10265373;28;20061;-71
2022/09/11 08:08:06;;;;;;;19.75;17.60;;;;;;;19.30;75.56;100402.41;10268021;28;20054;-70
2022/09/11 08:13:08;;;;;;;17.98;16.20;;;;;;;19.38;77.08;100403.22;10273057;28;20065;-72
2022/09/11 08:18:09;;;;;;;19.63;17.55;;;;;;;19.60;77.10;100400.72;10287176;28;20201;-70
2022/09/11 08:23:11;;;;;;;19.45;17.40;;;;;;;19.91;74.55;100400.69;10272517;28;20093;-73
2022/09/11 08:28:12;;;;;;;22.60;18.25;;;;;;;20.30;73.24;100398.84;10273093;28;20133;-69
2022/09/11 08:33:13;;;;;;;20.73;18.55;;;;;;;20.96;70.28;100393.56;10271845;28;20050;-69
2022/09/11 08:38:15;;;;;;;19.73;17.63;;;;;;;21.18;68.79;100405.31;10272183;28;20062;-68
2022/09/11 08:43:25;;;;;;;18.70;16.90;;;;;;;21.06;68.09;100411.38;10265530;28;20050;-72
2022/09/11 08:48:41;;;;;;;16.08;14.48;;;;;;;20.75;69.82;100420.56;10263534;28;20226;-70
2022/09/11 08:53:44;;;;;;;16.15;14.55;;;;;;;20.55;69.40;100417.50;10265538;28;20136;-69
2022/09/11 08:59:07;;;;;;;17.80;16.10;;;;;;;20.38;70.23;100412.25;10267336;28;20504;-74
2022/09/11 09:04:40;;;;;;;20.25;18.13;;;;;;;20.36;68.65;100414.31;10266751;28;20057;-73
2022/09/11 09:09:49;;;;;;;16.48;14.85;;;;;;;20.61;69.13;100422.16;10281172;28;20068;-70
2022/09/11 09:15:18;;;;;;;16.90;15.25;;;;;;;20.68;68.49;100427.72;10269698;28;20046;-73
2022/09/11 09:20:34;;;;;;;18.92;17.02;;;;;;;20.18;68.95;100438.16;10270873;28;20073;-69
2022/09/11 09:25:38;;;;;;;16.58;14.98;;;;;;;19.95;71.91;100434.44;10273985;28;20054;-73
2022/09/11 09:30:53;;;;;;;18.55;16.65;;;;;;;19.83;70.98;100440.41;10272804;28;20046;-72
2022/09/11 09:35:56;;;;;;;17.50;15.75;;;;;;;20.39;71.04;100432.03;10272918;28;20061;-72
2022/09/11 09:41:05;;;;;;;15.83;14.33;;;;;;;21.14;69.28;100436.47;10273989;28;20153;-74
2022/09/11 09:46:16;;;;;;;17.63;15.88;;;;;;;21.46;64.33;100447.91;10270890;28;20060;-72
2022/09/11 09:51:17;;;;;;;17.98;16.27;;;;;;;21.24;64.24;100447.00;10276632;28;20062;-71
2022/09/11 09:56:22;;;;;;;17.10;15.35;;;;;;;21.11;67.37;100444.97;10277153;28;20058;-73
2022/09/11 10:01:45;;;;;;;16.77;14.98;;;;;;;21.00;67.52;100449.00;10268991;28;20053;-69
2022/09/11 10:06:50;;;;;;;17.35;15.63;;;;;;;20.92;68.89;100449.06;10271269;28;20061;-70
2022/09/11 10:12:06;;;;;;;18.48;16.67;;;;;;;20.84;70.17;100452.72;10267067;28;20773;-73
2022/09/11 10:17:19;;;;;;;18.13;16.33;;;;;;;20.84;69.97;100449.19;10270625;28;20500;-72
2022/09/11 10:22:29;;;;;;;17.88;16.13;;;;;;;21.68;67.63;100439.84;10272173;28;20061;-72
2022/09/11 10:27:37;;;;;;;18.02;16.23;;;;;;;23.80;57.48;100443.34;10270856;28;20042;-74
2022/09/11 10:32:41;;;;;;;17.98;16.15;;;;;;;25.29;53.53;100427.50;10269760;28;20061;-72
2022/09/11 10:37:42;;;;;;;15.88;14.32;;;;;;;26.87;49.12;100424.06;10270906;28;20060;-73
2022/09/11 10:42:51;;;;;;;15.73;14.23;;;;;;;30.20;40.78;100421.13;10269843;28;20489;-70
2022/09/11 10:47:52;;;;;;;14.55;13.25;;;;;;;33.22;33.51;100410.69;10264366;28;20664;-70
2022/09/11 10:53:08;;;;;;;13.98;12.60;;;;;;;33.96;31.40;100405.88;10266394;28;20065;-74
2022/09/11 10:58:17;;;;;;;13.10;11.90;;;;;;;29.12;37.84;100408.97;10268827;28;20057;-74
2022/09/11 11:03:25;;;;;;;11.07;10.07;;;;;;;26.34;45.39;100406.31;10267986;28;20050;-71
2022/09/11 11:08:45;;;;;;;12.70;11.60;;;;;;;24.83;50.76;100417.59;10267837;28;20046;-74
2022/09/11 11:14:23;;;;;;;12.25;11.15;;;;;;;23.21;53.10;100417.66;10265455;28;20421;-70
2022/09/11 11:19:58;;;;;;;12.48;11.38;;;;;;;22.28;55.71;100424.16;10261391;28;20225;-73
2022/09/11 11:25:13;;;;;;;12.38;11.25;;;;;;;21.97;59.39;100430.75;10266926;28;20069;-71
2022/09/11 11:30:18;;;;;;;12.65;11.30;;;;;;;21.52;61.11;100430.91;10268326;28;20046;-71
2022/09/11 11:35:34;;;;;;;13.07;11.77;;;;;;;21.57;62.38;100426.81;10268394;28;20051;-73
2022/09/11 11:40:42;;;;;;;10.85;9.85;;;;;;;21.58;62.74;100423.06;10267787;28;20057;-69
2022/09/11 11:45:48;;;;;;;13.27;11.88;;;;;;;21.48;63.46;100437.72;10274696;28;20058;-73
2022/09/11 11:50:54;;;;;;;13.60;11.85;;;;;;;22.16;60.95;100431.13;10271935;28;20357;-72
2022/09/11 11:56:17;;;;;;;11.00;10.00;;;;;;;32.10;38.96;100425.41;10271812;28;20050;-73
2022/09/11 12:01:39;;;;;;;10.95;9.95;;;;;;;36.98;27.49;100421.84;10274170;28;20062;-74
2022/09/11 12:06:41;;;;;;;10.52;9.43;;;;;;;39.25;25.45;100423.59;10277289;28;21461;-75
2022/09/11 12:11:46;;;;;;;9.43;8.63;;;;;;;40.05;23.12;100418.34;10290781;28;20062;-77
2022/09/11 12:16:48;;;;;;;8.02;7.28;;;;;;;35.95;28.79;100410.13;10278880;28;20573;-75
2022/09/11 12:21:52;;;;;;;6.43;5.82;;;;;;;32.45;32.04;100407.53;10276661;28;20045;-73
2022/09/11 12:27:48;;;;;;;6.90;5.78;;;;;;;37.01;24.42;100402.94;10274132;28;20054;-74
2022/09/11 12:32:54;;;;;;;6.20;5.60;;;;;;;32.90;29.28;100403.38;10274431;28;20054;-73
2022/09/11 12:38:05;;;;;;;7.40;6.35;;;;;;;28.95;37.13;100406.19;10289936;28;20070;-72
2022/09/11 12:43:25;;;;;;;6.50;5.97;;;;;;;27.19;40.62;100411.09;10275341;28;20053;-71
2022/09/11 12:48:40;;;;;;;6.57;6.00;;;;;;;26.34;41.43;100407.13;10289094;28;20413;-75
2022/09/11 12:53:45;;;;;;;6.35;5.78;;;;;;;25.58;44.55;100396.16;10270272;28;20529;-75
2022/09/11 12:58:59;;;;;;;5.28;4.78;;;;;;;25.84;44.61;100398.94;10279090;28;20069;-71
2022/09/11 13:04:05;;;;;;;6.10;5.50;;;;;;;27.03;40.85;100395.31;10281335;28;20394;-74
2022/09/11 13:09:32;;;;;;;6.00;5.40;;;;;;;28.45;39.67;100385.63;10279646;28;20108;-77
2022/09/11 13:14:33;;;;;;;7.72;7.03;;;;;;;27.51;41.22;100387.13;10280448;28;22268;-73
2022/09/11 13:19:36;;;;;;;7.33;6.63;;;;;;;27.36;41.51;100375.78;10280330;28;20135;-74
2022/09/11 13:24:37;;;;;;;6.65;6.05;;;;;;;27.40;40.50;100370.66;10280717;28;20053;-75
2022/09/11 13:29:39;;;;;;;5.93;5.33;;;;;;;28.05;39.74;100369.91;10281177;28;20504;-74
2022/09/11 13:34:47;;;;;;;7.05;6.43;;;;;;;28.25;39.31;100364.06;10282685;28;20065;-76
2022/09/11 13:39:49;;;;;;;6.00;5.50;;;;;;;28.67;37.64;100349.44;10273593;28;20062;-72
2022/09/11 13:44:55;;;;;;;5.68;5.07;;;;;;;28.21;38.42;100355.53;10281557;28;20069;-73
2022/09/11 13:50:00;;;;;;;5.75;5.22;;;;;;;27.92;38.76;100359.16;10278293;28;20320;-71
2022/09/11 13:55:09;;;;;;;5.30;4.78;;;;;;;28.24;38.12;100356.09;10279362;28;20046;-76
2022/09/11 14:00:36;;;;;;;5.25;4.75;;;;;;;28.29;37.76;100337.91;10286334;28;20147;-73
2022/09/11 14:05:48;;;;;;;4.68;4.28;;;;;;;28.26;37.54;100340.31;10273712;28;20046;-72
2022/09/11 14:10:53;;;;;;;5.78;5.20;;;;;;;27.74;37.05;100336.28;10272334;28;20065;-72
2022/09/11 14:16:00;;;;;;;5.97;4.60;;;;;;;27.51;37.63;100332.44;10269780;28;20058;-70
2022/09/11 14:21:12;;;;;;;4.72;4.32;;;;;;;27.33;38.42;100332.53;10284792;28;20409;-76
2022/09/11 14:26:20;;;;;;;5.07;4.57;;;;;;;26.29;39.74;100336.06;10264598;28;20734;-73
2022/09/11 14:31:29;;;;;;;6.80;5.28;;;;;;;25.77;41.81;100328.91;10272502;28;20046;-73
2022/09/11 14:36:30;;;;;;;6.45;5.78;;;;;;;25.78;43.10;100324.31;10264015;28;20046;-71
2022/09/11 14:41:31;;;;;;;5.57;5.07;;;;;;;25.52;44.19;100330.78;10268043;28;20066;-68
2022/09/11 14:46:33;;;;;;;5.88;5.38;;;;;;;25.17;45.60;100320.28;10265247;28;20468;-73
2022/09/11 14:51:36;;;;;;;7.05;5.55;;;;;;;24.89;45.68;100326.91;10265098;28;20060;-74
2022/09/11 14:56:39;;;;;;;5.57;5.07;;;;;;;24.61;46.35;100317.19;10266455;28;20603;-70
2022/09/11 15:01:41;;;;;;;6.25;5.75;;;;;;;24.35;46.46;100318.09;10266900;28;20050;-71
2022/09/11 15:06:42;;;;;;;6.10;5.50;;;;;;;24.17;47.36;100313.31;10268421;28;20058;-72
2022/09/11 15:11:44;;;;;;;5.90;5.40;;;;;;;24.10;48.12;100307.88;10268292;28;20065;-72
2022/09/11 15:16:45;;;;;;;6.85;5.75;;;;;;;23.96;48.64;100298.03;10270545;28;20620;-70
2022/09/11 15:21:46;;;;;;;6.82;5.80;;;;;;;23.85;50.16;100307.69;10269323;28;20052;-73
2022/09/11 15:26:48;;;;;;;6.03;5.43;;;;;;;23.59;50.99;100306.59;10268040;28;20061;-70
2022/09/11 15:31:52;;;;;;;6.75;6.00;;;;;;;23.44;50.99;100301.34;10265784;28;20054;-74
2022/09/11 15:36:53;;;;;;;6.85;6.25;;;;;;;23.35;51.98;100299.88;10262063;28;20042;-72
2022/09/11 15:41:55;;;;;;;5.90;5.38;;;;;;;23.27;51.17;100292.78;10263575;28;20604;-75
2022/09/11 15:46:57;;;;;;;7.13;6.43;;;;;;;23.35;51.51;100293.63;10280812;28;20054;-74
2022/09/11 15:51:59;;;;;;;6.90;6.23;;;;;;;23.39;51.01;100276.72;10261961;28;20485;-75
2022/09/11 15:57:00;;;;;;;6.10;5.15;;;;;;;23.39;50.52;100278.56;10264880;28;20065;-74
2022/09/11 16:02:01;;;;;;;6.18;5.57;;;;;;;23.34;50.37;100281.09;10265610;28;20077;-74
2022/09/11 16:07:03;;;;;;;5.88;5.28;;;;;;;23.28;50.04;100283.59;10251796;28;20054;-73
2022/09/11 16:12:05;;;;;;;7.10;5.63;;;;;;;23.19;49.55;100287.53;10265414;28;20054;-73
2022/09/11 16:17:07;;;;;;;5.35;4.85;;;;;;;23.02;49.79;100288.94;10268273;28;20061;-73
2022/09/11 16:22:08;;;;;;;5.90;4.78;;;;;;;22.81;50.18;100293.44;10267207;28;20057;-75
2022/09/11 16:27:10;;;;;;;8.13;5.20;;;;;;;22.76;51.13;100290.53;10269914;28;20075;-75
2022/09/11 16:32:11;;;;;;;5.78;5.18;;;;;;;22.60;51.51;100281.66;10276853;28;20362;-76
2022/09/11 16:37:13;;;;;;;6.32;5.72;;;;;;;22.54;51.92;100281.66;10273645;28;20543;-73
2022/09/11 16:42:14;;;;;;;6.28;5.07;;;;;;;22.41;51.56;100282.41;10274090;28;20639;-73
2022/09/11 16:47:16;;;;;;;5.93;5.43;;;;;;;22.24;51.66;100293.56;10276478;28;20541;-72
2022/09/11 16:52:18;;;;;;;8.23;5.50;;;;;;;22.16;51.78;100292.88;10267147;28;20062;-72
2022/09/11 16:57:19;;;;;;;7.13;5.32;;;;;;;22.04;52.83;100281.75;10272862;28;20050;-73
2022/09/11 17:02:21;;;;;;;5.90;5.30;;;;;;;21.92;52.71;100276.06;10275252;28;20058;-71
2022/09/11 17:07:22;;;;;;;6.10;4.47;;;;;;;21.92;53.54;100281.47;10272109;28;20108;-71
2022/09/11 17:12:24;;;;;;;6.30;5.70;;;;;;;21.82;53.84;100284.50;10263590;28;20050;-73
2022/09/11 17:17:25;;;;;;;6.50;5.80;;;;;;;21.68;54.83;100280.03;10273112;28;20058;-75
2022/09/11 17:22:28;;;;;;;7.75;6.18;;;;;;;21.62;55.17;100278.09;10263632;28;20367;-71
2022/09/11 17:27:30;;;;;;;8.38;6.00;;;;;;;21.52;55.18;100279.25;10262526;28;20046;-73
2022/09/11 17:32:31;;;;;;;7.03;6.32;;;;;;;21.40;55.87;100279.97;10262867;28;20053;-75
2022/09/11 17:37:32;;;;;;;6.93;6.20;;;;;;;21.31;56.82;100279.25;10266052;28;20066;-73
2022/09/11 17:42:34;;;;;;;8.38;6.97;;;;;;;21.22;56.75;100283.13;10265253;28;20054;-73
2022/09/11 17:47:35;;;;;;;7.38;6.47;;;;;;;21.11;57.71;100292.59;10267829;28;20065;-72
2022/09/11 17:52:37;;;;;;;7.20;6.50;;;;;;;21.07;57.82;100292.13;10266206;28;20095;-72
2022/09/11 17:57:39;;;;;;;7.28;6.32;;;;;;;20.94;58.13;100294.66;10258760;28;20042;-74
2022/09/11 18:02:40;;;;;;;8.48;6.47;;;;;;;20.83;59.67;100291.44;10272472;28;20054;-72
2022/09/11 18:07:42;;;;;;;9.38;8.40;;;;;;;20.68;60.52;100300.63;10268480;28;20803;-68
2022/09/11 18:12:43;;;;;;;8.80;7.90;;;;;;;20.59;61.95;100297.13;10266181;28;20050;-72
2022/09/11 18:17:46;;;;;;;8.25;7.28;;;;;;;20.52;61.26;100301.63;10261697;28;20050;-69
2022/09/11 18:22:49;;;;;;;;;;;;;;;20.48;62.66;100304.69;10263268;28;20057;-70
2022/09/11 18:27:50;;;;;;;10.05;8.30;;;;;;;20.35;62.43;100299.09;10226845;28;19933;-71
2022/09/11 18:32:51;;;;;;;9.05;8.13;;;;;;;20.35;63.19;100307.22;10284424;28;20505;-71
2022/09/11 18:37:53;;;;;;;9.65;8.70;;;;;;;20.30;63.23;100312.34;10254660;28;20058;-70
2022/09/11 18:42:54;;;;;;;10.15;9.10;;;;;;;20.23;63.78;100306.81;10263158;28;20058;-72
2022/09/11 18:47:56;;;;;;;10.30;9.30;;;;;;;20.17;63.81;100317.56;10263728;28;20058;-74
2022/09/11 18:52:57;;;;;;;11.25;9.73;;;;;;;20.16;64.61;100321.28;10265217;28;20045;-72
2022/09/11 18:58:00;;;;;;;10.70;9.25;;;;;;;20.19;65.38;100326.31;10260024;28;20185;-72
2022/09/11 19:03:02;;;;;;;12.98;9.35;;;;;;;20.12;65.82;100327.03;10279355;28;20054;-73
2022/09/11 19:08:03;;;;;;;10.77;9.35;;;;;;;20.01;66.03;100330.22;10281771;28;20059;-74
2022/09/11 19:13:04;;;;;;;11.60;9.50;;;;;;;20.03;66.94;100330.84;10270529;28;20066;-71
2022/09/11 19:18:06;;;;;;;9.18;8.27;;;;;;;19.94;67.04;100337.38;10264893;28;20057;-71
2022/09/11 19:23:08;;;;;;;9.38;7.90;;;;;;;19.88;66.64;100335.41;10264560;28;20795;-72
2022/09/11 19:28:10;;;;;;;10.63;9.13;;;;;;;19.80;67.23;100335.44;10263855;28;20150;-71
2022/09/11 19:33:12;;;;;;;10.40;8.55;;;;;;;19.68;67.89;100335.00;10263753;28;20544;-72
2022/09/11 19:38:13;;;;;;;9.30;8.32;;;;;;;19.69;67.99;100351.03;10263947;28;20436;-70
2022/09/11 19:43:14;;;;;;;9.23;7.97;;;;;;;19.60;67.98;100350.25;10264848;28;20112;-73
2022/09/11 19:48:17;;;;;;;8.65;7.75;;;;;;;19.58;67.32;100354.16;10263624;28;20069;-73
2022/09/11 19:53:18;;;;;;;9.15;7.60;;;;;;;19.55;67.55;100346.44;10259486;28;20057;-71
2022/09/11 19:58:20;;;;;;;8.55;7.68;;;;;;;19.48;67.72;100342.75;10256659;28;20050;-68
2022/09/11 20:03:24;;;;;;;8.00;7.20;;;;;;;19.40;68.05;100343.66;10262090;28;20046;-72
2022/09/11 20:08:25;;;;;;;9.02;8.13;;;;;;;19.30;68.59;100338.47;10270261;28;20054;-70
2022/09/11 20:13:27;;;;;;;8.55;7.75;;;;;;;19.29;68.71;100342.22;10286921;28;20917;-68
2022/09/11 20:18:28;;;;;;;7.93;7.13;;;;;;;19.23;68.95;100338.38;10270640;28;20054;-73
2022/09/11 20:23:30;;;;;;;7.97;7.18;;;;;;;19.26;69.64;100350.69;10270162;28;20058;-71
2022/09/11 20:28:31;;;;;;;8.20;7.32;;;;;;;19.30;70.00;100348.44;10269068;28;20054;-73
2022/09/11 20:33:33;;;;;;;8.10;7.35;;;;;;;19.29;69.19;100349.44;10267963;28;20046;-68
2022/09/11 20:38:34;;;;;;;8.18;7.40;;;;;;;19.34;70.14;100356.00;10260435;28;20195;-70
2022/09/11 20:43:36;;;;;;;7.72;7.00;;;;;;;19.46;69.71;100355.59;10263941;28;20057;-71
2022/09/11 20:48:37;;;;;;;9.18;8.25;;;;;;;19.49;69.50;100350.69;10262071;28;20054;-73
2022/09/11 20:53:40;;;;;;;10.20;9.30;;;;;;;19.41;69.06;100354.28;10265097;28;20381;-71
2022/09/11 20:58:43;;;;;;;7.53;6.90;;;;;;;19.36;69.47;100350.44;10262464;28;20061;-72
2022/09/11 21:03:47;;;;;;;9.30;8.40;;;;;;;19.26;71.40;100347.97;10264250;28;20425;-71
2022/09/11 21:08:50;;;;;;;9.07;8.18;;;;;;;19.28;71.59;100351.31;10267796;28;20053;-70
2022/09/11 21:13:51;;;;;;;9.00;8.10;;;;;;;19.14;71.11;100350.22;10265526;28;20058;-68
2022/09/11 21:18:55;;;;;;;9.20;8.30;;;;;;;18.96;71.35;100345.09;10264326;28;20075;-68
2022/09/11 21:24:02;;;;;;;9.23;8.32;;;;;;;18.85;71.97;100334.66;10265732;28;20055;-70
2022/09/11 21:29:07;;;;;;;11.00;8.90;;;;;;;18.70;72.29;100340.78;10264561;28;20145;-70
2022/09/11 21:34:08;;;;;;;10.30;9.10;;;;;;;18.66;73.09;100341.28;10264537;28;20050;-70
2022/09/11 21:39:10;;;;;;;9.60;8.65;;;;;;;18.61;73.22;100332.91;10265210;28;20073;-70
2022/09/11 21:44:12;;;;;;;9.15;8.23;;;;;;;18.63;73.58;100339.81;10263835;28;20062;-72
2022/09/11 21:49:13;;;;;;;12.35;9.35;;;;;;;18.55;73.65;100329.91;10264550;28;20061;-71
2022/09/11 21:54:14;;;;;;;9.82;8.82;;;;;;;18.60;73.96;100331.22;10260504;28;20054;-71
2022/09/11 21:59:15;;;;;;;11.07;9.07;;;;;;;18.47;74.20;100339.88;10256990;28;20047;-73
2022/09/11 22:04:17;;;;;;;9.50;8.70;;;;;;;18.47;74.84;100326.38;10247047;28;20050;-71
2022/09/11 22:09:19;;;;;;;10.63;9.52;;;;;;;18.45;75.11;100328.41;10249852;28;20055;-71
2022/09/11 22:14:21;;;;;;;10.23;9.23;;;;;;;18.39;75.06;100329.94;10247784;28;20057;-68
2022/09/11 22:19:22;;;;;;;10.15;9.15;;;;;;;18.28;75.50;100330.31;10249559;28;20046;-71
2022/09/11 22:24:24;;;;;;;10.18;9.18;;;;;;;18.19;75.78;100332.16;10245937;28;20081;-70
2022/09/11 22:29:25;;;;;;;10.40;9.40;;;;;;;18.16;75.97;100329.81;10288575;28;20058;-73
2022/09/11 22:34:26;;;;;;;10.23;9.15;;;;;;;18.11;76.08;100321.44;10287443;28;20062;-67
2022/09/11 22:39:30;;;;;;;10.27;9.35;;;;;;;18.06;76.42;100315.69;10290216;28;20050;-71
2022/09/11 22:44:31;;;;;;;;;;;;;;;17.94;77.41;100310.69;10290057;28;20577;-69
2022/09/11 22:49:33;;;;;;;10.63;9.45;;;;;;;17.86;77.98;100318.72;10288888;28;19925;-71
2022/09/11 22:54:34;;;;;;;10.77;9.50;;;;;;;17.76;78.17;100316.22;10286759;28;20052;-70
2022/09/11 22:59:35;;;;;;;10.57;9.57;;;;;;;17.65;79.07;100328.16;10288660;28;20054;-71
2022/09/11 23:04:37;;;;;;;11.23;9.40;;;;;;;17.62;79.02;100328.47;10288707;28;20081;-70
2022/09/11 23:09:38;;;;;;;10.10;9.10;;;;;;;17.58;79.30;100327.16;10290438;28;20069;-72
2022/09/11 23:14:39;;;;;;;10.65;9.45;;;;;;;17.59;79.33;100323.44;10288293;28;20065;-71